createdAt,value
2022-11-22T00:00:51.780Z,100.00
2022-11-22T00:03:36.826Z,100.00
2022-11-22T00:06:22.026Z,100.00
2022-11-22T00:09:07.144Z,100.00
2022-11-22T00:11:52.358Z,100.00
2022-11-22T00:14:37.731Z,100.00
2022-11-22T00:17:23.317Z,100.00
2022-11-22T00:20:09.356Z,100.00
2022-11-22T00:22:56.460Z,100.00
2022-11-22T00:25:42.104Z,100.00
2022-11-22T00:28:27.342Z,100.00
2022-11-22T00:31:12.654Z,100.00
2022-11-22T00:33:58.071Z,100.00
2022-11-22T00:36:44.528Z,100.00
2022-11-22T00:39:29.875Z,100.00
2022-11-22T00:42:15.198Z,100.00
2022-11-22T00:45:00.361Z,100.00
2022-11-22T00:47:45.300Z,100.00
2022-11-22T00:50:30.308Z,100.00
2022-11-22T00:53:15.779Z,100.00
2022-11-22T00:56:00.604Z,100.00
2022-11-22T00:58:45.562Z,100.00
2022-11-22T01:01:30.944Z,100.00
2022-11-22T01:04:16.121Z,100.00
2022-11-22T01:07:01.236Z,100.00
2022-11-22T01:09:46.487Z,100.00
2022-11-22T01:12:31.599Z,100.00
2022-11-22T01:15:16.960Z,100.00
2022-11-22T01:18:02.337Z,100.00
2022-11-22T01:20:47.753Z,100.00
2022-11-22T01:23:34.306Z,100.00
2022-11-22T01:26:19.183Z,100.00
2022-11-22T01:29:04.681Z,100.00
2022-11-22T01:31:49.831Z,100.00
2022-11-22T01:34:34.766Z,100.00
2022-11-22T01:37:19.732Z,100.00
2022-11-22T01:40:05.204Z,100.00
2022-11-22T01:42:52.803Z,100.00
2022-11-22T01:45:42.257Z,100.00
2022-11-22T01:48:47.824Z,100.00
2022-11-22T01:51:39.354Z,100.00
2022-11-22T01:54:29.854Z,100.00
2022-11-22T01:57:20.393Z,100.00
2022-11-22T02:00:09.379Z,100.00
2022-11-22T02:03:00.204Z,100.00
2022-11-22T02:05:46.788Z,100.00
2022-11-22T02:08:54.936Z,100.00
2022-11-22T02:11:46.076Z,100.00
2022-11-22T02:14:31.937Z,100.00
2022-11-22T02:17:17.304Z,100.00
2022-11-22T02:20:03.719Z,100.00
2022-11-22T02:23:07.306Z,100.00
2022-11-22T02:26:02.210Z,100.00
2022-11-22T02:28:49.012Z,100.00
2022-11-22T02:31:39.193Z,100.00
2022-11-22T02:34:24.060Z,100.00
2022-11-22T02:37:11.084Z,100.00
2022-11-22T02:40:03.587Z,100.00
2022-11-22T02:42:52.903Z,100.00
2022-11-22T02:45:37.828Z,100.00
2022-11-22T02:48:22.954Z,100.00
2022-11-22T02:51:08.151Z,100.00
2022-11-22T02:53:53.260Z,100.00
2022-11-22T02:56:38.393Z,100.00
2022-11-22T02:59:24.128Z,100.00
2022-11-22T03:02:09.255Z,100.00
2022-11-22T03:04:54.463Z,100.00
2022-11-22T03:07:39.434Z,100.00
2022-11-22T03:10:24.844Z,100.00
2022-11-22T03:13:09.900Z,100.00
2022-11-22T03:15:54.870Z,100.00
2022-11-22T03:18:40.141Z,100.00
2022-11-22T03:21:25.423Z,100.00
2022-11-22T03:24:11.140Z,100.00
2022-11-22T03:26:56.005Z,100.00
2022-11-22T03:29:40.894Z,100.00
2022-11-22T03:32:26.366Z,100.00
2022-11-22T03:35:11.354Z,100.00
2022-11-22T03:37:57.331Z,100.00
2022-11-22T03:40:46.353Z,100.00
2022-11-22T03:43:31.411Z,100.00
2022-11-22T03:46:18.555Z,100.00
2022-11-22T03:49:03.752Z,100.00
2022-11-22T03:51:48.911Z,100.00
2022-11-22T03:54:34.292Z,100.00
2022-11-22T03:57:19.394Z,100.00
2022-11-22T04:00:05.953Z,100.00
2022-11-22T04:02:50.977Z,100.00
2022-11-22T04:05:36.305Z,100.00
2022-11-22T04:08:21.360Z,100.00
2022-11-22T04:11:06.277Z,100.00
2022-11-22T04:13:51.578Z,100.00
2022-11-22T04:16:36.664Z,100.00
2022-11-22T04:19:21.908Z,100.00
2022-11-22T04:22:06.950Z,100.00
2022-11-22T04:24:52.292Z,100.00
2022-11-22T04:27:37.134Z,100.00
2022-11-22T04:30:22.369Z,100.00
2022-11-22T04:33:07.898Z,100.00
2022-11-22T04:35:53.918Z,100.00
2022-11-22T04:41:12.076Z,100.00
2022-11-22T04:43:56.937Z,100.00
2022-11-22T04:46:41.887Z,100.00
2022-11-22T04:49:27.634Z,100.00
2022-11-22T04:52:13.364Z,100.00
2022-11-22T04:54:58.635Z,100.00
2022-11-22T04:57:43.454Z,100.00
2022-11-22T05:00:29.599Z,100.00
2022-11-22T05:03:15.163Z,100.00
2022-11-22T05:06:05.318Z,100.00
2022-11-22T05:08:50.264Z,100.00
2022-11-22T05:11:35.711Z,100.00
2022-11-22T05:14:20.580Z,100.00
2022-11-22T05:17:05.356Z,100.00
2022-11-22T05:19:50.255Z,100.00
2022-11-22T05:22:35.631Z,100.00
2022-11-22T05:25:25.326Z,100.00
2022-11-22T05:28:11.184Z,100.00
2022-11-22T05:30:56.835Z,100.00
2022-11-22T05:33:44.365Z,100.00
2022-11-22T05:36:33.572Z,100.00
2022-11-22T05:39:18.628Z,100.00
2022-11-22T05:42:04.030Z,100.00
2022-11-22T05:44:49.454Z,100.00
2022-11-22T05:47:36.016Z,100.00
2022-11-22T05:50:21.579Z,100.00
2022-11-22T05:53:06.561Z,100.00
2022-11-22T05:55:51.400Z,100.00
2022-11-22T05:58:37.302Z,100.00
2022-11-22T06:01:24.117Z,100.00
2022-11-22T06:04:09.274Z,100.00
2022-11-22T06:06:54.192Z,100.00
2022-11-22T06:09:39.760Z,100.00
2022-11-22T06:12:24.670Z,100.00
2022-11-22T06:15:10.313Z,100.00
2022-11-22T06:17:55.925Z,100.00
2022-11-22T06:20:40.982Z,100.00
2022-11-22T06:23:26.493Z,100.00
2022-11-22T06:26:13.825Z,100.00
2022-11-22T06:29:00.131Z,100.00
2022-11-22T06:31:45.375Z,100.00
2022-11-22T06:34:30.780Z,100.00
2022-11-22T06:37:15.903Z,100.00
2022-11-22T06:40:00.854Z,100.00
2022-11-22T06:42:46.102Z,100.00
2022-11-22T06:45:30.973Z,100.00
2022-11-22T06:48:16.341Z,100.00
2022-11-22T06:51:03.691Z,100.00
2022-11-22T06:53:49.944Z,100.00
2022-11-22T06:56:39.548Z,100.00
2022-11-22T06:59:24.881Z,100.00
2022-11-22T07:02:11.593Z,100.00
2022-11-22T07:05:23.930Z,100.00
2022-11-22T07:08:08.008Z,100.00
2022-11-22T07:11:05.420Z,100.00
2022-11-22T07:13:51.524Z,100.00
2022-11-22T07:16:38.366Z,100.00
2022-11-22T07:19:23.334Z,100.00
2022-11-22T07:22:11.592Z,100.00
2022-11-22T07:24:58.234Z,100.00
2022-11-22T07:27:43.154Z,100.00
2022-11-22T07:30:28.082Z,100.00
2022-11-22T07:33:13.219Z,100.00
2022-11-22T07:36:21.336Z,100.00
2022-11-22T07:39:06.313Z,100.00
2022-11-22T07:41:51.670Z,100.00
2022-11-22T07:44:36.971Z,100.00
2022-11-22T07:47:23.199Z,100.00
2022-11-22T07:50:09.056Z,100.00
2022-11-22T07:52:58.664Z,100.00
2022-11-22T07:55:43.892Z,100.00
2022-11-22T07:58:29.039Z,100.00
2022-11-22T08:01:16.309Z,100.00
2022-11-22T08:04:02.026Z,100.00
2022-11-22T08:06:47.131Z,100.00
2022-11-22T08:09:32.510Z,100.00
2022-11-22T08:12:17.785Z,100.00
2022-11-22T08:15:02.805Z,100.00
2022-11-22T08:17:48.091Z,100.00
2022-11-22T08:20:33.490Z,100.00
2022-11-22T08:23:18.843Z,100.00
2022-11-22T08:26:06.311Z,100.00
2022-11-22T08:28:51.564Z,100.00
2022-11-22T08:31:40.231Z,100.00
2022-11-22T08:34:28.375Z,100.00
2022-11-22T08:37:14.185Z,100.00
2022-11-22T08:39:59.808Z,100.00
2022-11-22T08:42:44.979Z,100.00
2022-11-22T08:45:29.729Z,100.00
2022-11-22T08:48:20.626Z,100.00
2022-11-22T08:51:10.122Z,100.00
2022-11-22T08:53:55.482Z,100.00
2022-11-22T08:56:41.252Z,100.00
2022-11-22T08:59:26.247Z,100.00
2022-11-22T09:02:11.583Z,100.00
2022-11-22T09:04:56.611Z,100.00
2022-11-22T09:10:46.584Z,100.00
2022-11-22T09:13:31.862Z,100.00
2022-11-22T09:16:20.470Z,100.00
2022-11-22T09:19:05.636Z,100.00
2022-11-22T09:21:50.771Z,100.00
2022-11-22T09:24:36.148Z,100.00
2022-11-22T09:27:21.684Z,100.00
2022-11-22T09:30:07.497Z,100.00
2022-11-22T09:32:52.748Z,100.00
2022-11-22T09:35:37.721Z,100.00
2022-11-22T09:38:22.560Z,100.00
2022-11-22T09:41:17.143Z,100.00
2022-11-22T09:45:11.390Z,99.55
2022-11-22T09:48:19.568Z,99.30
2022-11-22T09:51:17.257Z,98.88
2022-11-22T09:54:10.660Z,96.86
2022-11-22T09:57:01.580Z,95.44
2022-11-22T09:59:53.992Z,93.99
2022-11-22T10:03:00.023Z,92.63
2022-11-22T10:05:59.918Z,92.39
2022-11-22T10:09:05.104Z,91.84
2022-11-22T10:12:09.281Z,91.45
2022-11-22T10:15:07.803Z,91.19
2022-11-22T10:17:56.383Z,91.58
2022-11-22T10:20:48.644Z,90.47
2022-11-22T10:23:34.411Z,88.15
2022-11-22T10:26:24.962Z,87.31
2022-11-22T10:29:24.558Z,87.33
2022-11-22T10:32:37.952Z,85.99
2022-11-22T10:35:39.573Z,85.94
2022-11-22T10:38:34.126Z,84.11
2022-11-22T10:41:52.026Z,84.62
2022-11-22T10:44:58.308Z,84.50
2022-11-22T10:47:55.816Z,83.16
2022-11-22T10:50:54.759Z,82.70
2022-11-22T10:54:18.040Z,81.63
2022-11-22T10:57:21.858Z,81.88
2022-11-22T11:00:22.395Z,81.54
2022-11-22T11:03:20.722Z,82.26
2022-11-22T11:06:49.912Z,81.56
2022-11-22T11:13:06.510Z,80.02
2022-11-22T11:15:56.356Z,79.96
2022-11-22T11:18:45.452Z,79.68
2022-11-22T11:21:30.549Z,78.74
2022-11-22T11:24:16.800Z,78.36
2022-11-22T11:27:02.287Z,77.99
2022-11-22T11:30:04.461Z,78.87
2022-11-22T11:32:55.244Z,77.27
2022-11-22T11:35:44.727Z,76.92
2022-11-22T11:38:34.562Z,76.67
2022-11-22T11:41:36.142Z,76.89
2022-11-22T11:44:28.785Z,75.50
2022-11-22T11:47:32.773Z,74.56
2022-11-22T11:50:24.277Z,73.97
2022-11-22T11:53:22.789Z,75.42
2022-11-22T11:56:45.156Z,74.37
2022-11-22T11:59:36.626Z,74.13
2022-11-22T12:02:34.242Z,74.77
2022-11-22T12:05:21.309Z,73.76
2022-11-22T12:08:29.844Z,74.35
2022-11-22T12:11:23.193Z,73.74
2022-11-22T12:14:20.922Z,74.08
2022-11-22T12:17:18.425Z,73.60
2022-11-22T12:20:09.580Z,73.19
2022-11-22T12:23:16.861Z,73.21
2022-11-22T12:26:02.431Z,73.52
2022-11-22T12:28:48.797Z,73.65
2022-11-22T12:31:45.875Z,72.71
2022-11-22T12:34:43.547Z,72.00
2022-11-22T12:37:42.879Z,73.00
2022-11-22T12:40:42.599Z,73.29
2022-11-22T12:43:56.526Z,73.43
2022-11-22T12:46:53.963Z,73.20
2022-11-22T12:49:47.312Z,73.27
2022-11-22T12:52:32.545Z,73.42
2022-11-22T12:55:24.555Z,74.36
2022-11-22T12:58:33.181Z,75.44
2022-11-22T13:01:37.106Z,74.48
2022-11-22T13:04:45.863Z,74.33
2022-11-22T13:08:05.736Z,75.05
2022-11-22T13:11:16.380Z,75.41
2022-11-22T13:14:10.839Z,76.68
2022-11-22T13:16:56.422Z,76.27
2022-11-22T13:19:47.232Z,76.15
2022-11-22T13:22:35.410Z,75.11
2022-11-22T13:25:39.375Z,74.68
2022-11-22T13:28:29.751Z,73.93
2022-11-22T13:31:18.326Z,73.04
2022-11-22T13:34:26.343Z,72.44
2022-11-22T13:37:16.563Z,72.06
2022-11-22T13:40:17.455Z,73.79
2022-11-22T13:43:21.393Z,75.59
2022-11-22T13:46:53.071Z,75.68
2022-11-22T13:49:48.888Z,76.37
2022-11-22T13:52:52.226Z,76.50
2022-11-22T13:55:42.315Z,77.09
2022-11-22T13:58:28.191Z,77.09
2022-11-22T14:01:31.553Z,76.98
2022-11-22T14:04:16.868Z,76.95
2022-11-22T14:07:21.619Z,77.26
2022-11-22T14:10:25.464Z,77.82
2022-11-22T14:13:13.871Z,77.50
2022-11-22T14:16:14.339Z,77.41
2022-11-22T14:19:28.152Z,77.26
2022-11-22T14:22:18.682Z,77.29
2022-11-22T14:25:20.052Z,77.09
2022-11-22T14:28:26.041Z,77.05
2022-11-22T14:31:23.814Z,77.38
2022-11-22T14:34:29.026Z,78.14
2022-11-22T14:37:14.342Z,78.27
2022-11-22T14:40:08.898Z,78.22
2022-11-22T14:42:58.435Z,78.01
2022-11-22T14:45:55.353Z,78.54
2022-11-22T14:48:52.991Z,78.54
2022-11-22T14:51:39.269Z,78.81
2022-11-22T14:54:45.424Z,78.91
2022-11-22T14:57:34.018Z,79.19
2022-11-22T15:00:23.383Z,79.20
2022-11-22T15:03:46.139Z,79.40
2022-11-22T15:09:19.461Z,79.73
2022-11-22T15:09:59.502Z,79.89
2022-11-22T15:12:54.019Z,79.64
2022-11-22T15:57:25.805Z,82.05
2022-11-22T16:00:21.979Z,81.59
2022-11-22T16:03:25.657Z,81.40
2022-11-22T16:06:15.712Z,82.21
2022-11-22T16:09:03.996Z,82.47
2022-11-22T16:11:53.720Z,82.25
2022-11-22T16:14:43.600Z,82.81
2022-11-22T16:17:30.125Z,82.66
2022-11-22T16:20:24.295Z,82.57
2022-11-22T16:23:09.224Z,82.65
2022-11-22T16:26:00.374Z,82.70
2022-11-22T16:28:49.960Z,83.03
2022-11-22T16:31:40.113Z,83.24
2022-11-22T16:34:25.310Z,83.59
2022-11-22T16:37:34.650Z,83.33
2022-11-22T16:40:23.212Z,83.75
2022-11-22T16:43:19.545Z,84.33
2022-11-22T16:46:05.016Z,84.13
2022-11-22T16:48:50.678Z,83.85
2022-11-22T16:51:35.791Z,84.05
2022-11-22T16:54:22.381Z,84.17
2022-11-22T16:57:12.610Z,83.91
2022-11-22T16:59:58.176Z,84.93
2022-11-22T17:02:43.787Z,84.69
2022-11-22T17:05:28.720Z,85.04
2022-11-22T17:08:16.507Z,85.16
2022-11-22T17:11:01.679Z,85.29
2022-11-22T17:13:47.878Z,85.80
2022-11-22T17:16:34.608Z,85.79
2022-11-22T17:19:45.601Z,86.00
2022-11-22T17:22:24.594Z,85.84
2022-11-22T17:25:12.134Z,86.31
2022-11-22T17:27:57.066Z,86.20
2022-11-22T17:30:41.984Z,85.94
2022-11-22T17:33:27.511Z,86.24
2022-11-22T17:36:27.499Z,86.22
2022-11-22T17:39:13.898Z,86.14
2022-11-22T17:41:59.154Z,85.88
2022-11-22T17:44:44.227Z,86.48
2022-11-22T17:47:29.676Z,86.49
2022-11-22T17:50:14.921Z,87.00
2022-11-22T17:52:59.896Z,87.03
2022-11-22T17:56:11.651Z,86.44
2022-11-22T17:58:50.114Z,87.44
2022-11-22T18:01:35.466Z,88.08
2022-11-22T18:04:20.424Z,87.99
2022-11-22T18:07:05.946Z,88.25
2022-11-22T18:09:51.291Z,88.33
2022-11-22T18:12:42.285Z,88.64
2022-11-22T18:15:32.193Z,88.91
2022-11-22T18:18:40.410Z,89.08
2022-11-22T18:21:23.447Z,89.05
2022-11-22T18:24:08.699Z,89.39
2022-11-22T18:26:54.006Z,89.21
2022-11-22T18:29:42.500Z,89.28
2022-11-22T18:32:38.467Z,89.30
2022-11-22T18:35:23.389Z,89.65
2022-11-22T18:38:08.150Z,89.70
2022-11-22T18:40:53.566Z,89.30
2022-11-22T18:43:38.373Z,89.14
2022-11-22T18:46:23.360Z,89.78
2022-11-22T18:49:08.463Z,89.76
2022-11-22T18:51:53.646Z,89.86
2022-11-22T18:54:38.497Z,90.46
2022-11-22T18:57:23.448Z,90.16
2022-11-22T19:00:09.267Z,90.95
2022-11-22T19:02:54.293Z,90.88
2022-11-22T19:05:39.981Z,91.03
2022-11-22T19:08:25.139Z,91.50
2022-11-22T19:11:10.617Z,91.49
2022-11-22T19:13:55.507Z,91.72
2022-11-22T19:16:40.554Z,92.16
2022-11-22T19:19:25.420Z,91.83
2022-11-22T19:22:10.299Z,92.00
2022-11-22T19:24:55.268Z,92.09
2022-11-22T19:27:39.965Z,92.13
2022-11-22T19:30:25.028Z,92.50
2022-11-22T19:33:10.177Z,92.67
2022-11-22T19:36:04.339Z,92.60
2022-11-22T19:38:49.807Z,92.92
2022-11-22T19:41:34.686Z,92.90
2022-11-22T19:44:19.552Z,93.15
2022-11-22T19:47:04.476Z,93.40
2022-11-22T19:49:49.670Z,93.78
2022-11-22T19:52:34.787Z,93.97
2022-11-22T19:55:19.682Z,94.47
2022-11-22T19:58:04.956Z,94.69
2022-11-22T20:00:49.920Z,94.58
2022-11-22T20:03:36.433Z,94.94
2022-11-22T20:06:21.611Z,95.25
2022-11-22T20:09:11.635Z,95.41
2022-11-22T20:11:56.515Z,95.56
2022-11-22T20:14:41.580Z,95.60
2022-11-22T20:17:26.446Z,95.95
2022-11-22T20:20:11.470Z,96.36
2022-11-22T20:22:56.664Z,96.30
2022-11-22T20:25:41.586Z,96.81
2022-11-22T20:28:26.682Z,97.09
2022-11-22T20:31:19.563Z,97.22
2022-11-22T20:34:04.572Z,97.43
2022-11-22T20:36:49.648Z,98.06
2022-11-22T20:39:34.486Z,97.96
2022-11-22T20:42:34.126Z,98.15
2022-11-22T20:45:19.844Z,98.08
2022-11-22T20:48:04.966Z,98.32
2022-11-22T20:50:50.541Z,98.27
2022-11-22T20:53:36.061Z,98.58
2022-11-22T20:56:21.679Z,98.89
2022-11-22T20:59:06.437Z,99.38
2022-11-22T21:01:51.518Z,99.92
2022-11-22T21:04:36.719Z,100.00
2022-11-22T21:07:21.799Z,100.00
2022-11-22T21:10:06.806Z,100.00
2022-11-22T21:12:52.764Z,100.00
2022-11-22T21:15:38.050Z,100.00
2022-11-22T21:18:25.571Z,100.00
2022-11-22T21:21:12.930Z,100.00
2022-11-22T21:24:01.338Z,100.00
2022-11-22T21:26:46.750Z,100.00
2022-11-22T21:29:31.994Z,100.00
2022-11-22T21:32:16.782Z,100.00
2022-11-22T21:35:01.583Z,100.00
2022-11-22T21:37:46.654Z,100.00
2022-11-22T21:40:31.494Z,100.00
2022-11-22T21:43:16.401Z,100.00
2022-11-22T21:46:01.380Z,100.00
2022-11-22T21:48:48.350Z,100.00
2022-11-22T21:51:33.335Z,100.00
2022-11-22T21:54:18.290Z,100.00
2022-11-22T21:57:03.415Z,100.00
2022-11-22T21:59:48.439Z,100.00
2022-11-22T22:02:33.544Z,100.00
2022-11-22T22:05:18.612Z,100.00
2022-11-22T22:08:03.783Z,100.00
2022-11-22T22:10:50.008Z,100.00
2022-11-22T22:13:35.411Z,100.00
2022-11-22T22:16:21.124Z,100.00
2022-11-22T22:19:09.452Z,100.00
2022-11-22T22:21:54.506Z,100.00
2022-11-22T22:24:39.733Z,100.00
2022-11-22T22:27:25.310Z,100.00
2022-11-22T22:30:10.985Z,100.00
2022-11-22T22:32:56.219Z,100.00
2022-11-22T22:35:41.737Z,100.00
2022-11-22T22:38:27.219Z,100.00
2022-11-22T22:41:13.566Z,100.00
2022-11-22T22:43:58.738Z,100.00
2022-11-22T22:46:43.830Z,100.00
2022-11-22T22:49:29.763Z,100.00
2022-11-22T22:52:15.531Z,100.00
2022-11-22T22:55:00.733Z,100.00
2022-11-22T22:57:45.574Z,100.00
2022-11-22T23:00:30.612Z,100.00
2022-11-22T23:03:15.563Z,100.00
2022-11-22T23:06:05.150Z,100.00
2022-11-22T23:08:52.009Z,100.00
2022-11-22T23:11:37.304Z,100.00
2022-11-22T23:14:27.270Z,100.00
2022-11-22T23:17:12.204Z,100.00
2022-11-22T23:19:57.503Z,100.00
2022-11-22T23:22:42.541Z,100.00
2022-11-22T23:25:27.320Z,100.00
2022-11-22T23:28:12.345Z,100.00
2022-11-22T23:31:03.868Z,100.00
2022-11-22T23:33:49.147Z,100.00
2022-11-22T23:36:40.207Z,100.00
2022-11-22T23:39:26.063Z,100.00
2022-11-22T23:42:11.175Z,100.00
2022-11-22T23:44:55.928Z,100.00
2022-11-22T23:47:40.836Z,100.00
2022-11-22T23:50:25.647Z,100.00
2022-11-22T23:53:10.607Z,100.00
2022-11-22T23:55:55.410Z,100.00
2022-11-22T23:58:41.016Z,100.00
